sensor_id;sensor_type;location;lat;lon;timestamp;temperature;humidity
43842;DHT22;29495;49.970;20.842;2022-08-19T00:02:23;22.00;99.90
43842;DHT22;29495;49.970;20.842;2022-08-19T00:04:49;21.90;99.90
43842;DHT22;29495;49.970;20.842;2022-08-19T00:07:21;21.80;99.90
43842;DHT22;29495;49.970;20.842;2022-08-19T00:09:47;21.70;99.90
43842;DHT22;29495;49.970;20.842;2022-08-19T00:12:13;21.50;99.90
43842;DHT22;29495;49.970;20.842;2022-08-19T00:14:39;21.50;99.90
43842;DHT22;29495;49.970;20.842;2022-08-19T00:17:07;21.50;99.90
43842;DHT22;29495;49.970;20.842;2022-08-19T00:19:34;21.60;99.90
43842;DHT22;29495;49.970;20.842;2022-08-19T00:22:02;21.60;99.90
43842;DHT22;29495;49.970;20.842;2022-08-19T00:24:28;21.60;99.90
43842;DHT22;29495;49.970;20.842;2022-08-19T00:26:55;21.70;99.90
43842;DHT22;29495;49.970;20.842;2022-08-19T00:29:24;21.60;99.90
43842;DHT22;29495;49.970;20.842;2022-08-19T00:31:50;21.70;99.90
43842;DHT22;29495;49.970;20.842;2022-08-19T00:34:21;21.60;99.90
43842;DHT22;29495;49.970;20.842;2022-08-19T00:36:48;21.40;99.90
43842;DHT22;29495;49.970;20.842;2022-08-19T00:39:16;21.40;99.90
43842;DHT22;29495;49.970;20.842;2022-08-19T00:41:43;21.20;99.90
43842;DHT22;29495;49.970;20.842;2022-08-19T00:44:14;21.00;99.90
43842;DHT22;29495;49.970;20.842;2022-08-19T00:46:44;21.00;99.90
43842;DHT22;29495;49.970;20.842;2022-08-19T00:49:29;21.10;99.90
43842;DHT22;29495;49.970;20.842;2022-08-19T00:52:19;21.10;99.90
43842;DHT22;29495;49.970;20.842;2022-08-19T00:54:46;21.30;99.90
43842;DHT22;29495;49.970;20.842;2022-08-19T00:57:16;21.30;99.90
43842;DHT22;29495;49.970;20.842;2022-08-19T00:59:46;21.20;99.90
43842;DHT22;29495;49.970;20.842;2022-08-19T01:02:14;21.20;99.90
43842;DHT22;29495;49.970;20.842;2022-08-19T01:04:40;21.10;99.90
43842;DHT22;29495;49.970;20.842;2022-08-19T01:07:07;21.10;99.90
43842;DHT22;29495;49.970;20.842;2022-08-19T01:09:33;21.10;99.90
43842;DHT22;29495;49.970;20.842;2022-08-19T01:12:00;21.10;99.90
43842;DHT22;29495;49.970;20.842;2022-08-19T01:14:25;21.00;99.90
43842;DHT22;29495;49.970;20.842;2022-08-19T01:16:53;21.00;99.90
43842;DHT22;29495;49.970;20.842;2022-08-19T01:19:27;20.90;99.90
43842;DHT22;29495;49.970;20.842;2022-08-19T01:24:37;20.80;99.90
43842;DHT22;29495;49.970;20.842;2022-08-19T01:27:05;20.80;99.90
43842;DHT22;29495;49.970;20.842;2022-08-19T01:29:31;20.90;99.90
43842;DHT22;29495;49.970;20.842;2022-08-19T01:31:58;20.90;99.90
43842;DHT22;29495;49.970;20.842;2022-08-19T01:34:24;20.90;99.90
43842;DHT22;29495;49.970;20.842;2022-08-19T01:36:50;20.80;99.90
43842;DHT22;29495;49.970;20.842;2022-08-19T01:39:20;20.70;99.90
43842;DHT22;29495;49.970;20.842;2022-08-19T01:41:47;20.60;99.90
43842;DHT22;29495;49.970;20.842;2022-08-19T01:44:14;20.40;99.90
43842;DHT22;29495;49.970;20.842;2022-08-19T01:46:41;20.50;99.90
43842;DHT22;29495;49.970;20.842;2022-08-19T01:49:08;20.60;99.90
43842;DHT22;29495;49.970;20.842;2022-08-19T01:51:34;20.70;99.90
43842;DHT22;29495;49.970;20.842;2022-08-19T01:54:00;20.80;99.90
43842;DHT22;29495;49.970;20.842;2022-08-19T01:56:26;20.90;99.90
43842;DHT22;29495;49.970;20.842;2022-08-19T01:59:00;20.90;99.90
43842;DHT22;29495;49.970;20.842;2022-08-19T02:01:26;20.90;99.90
43842;DHT22;29495;49.970;20.842;2022-08-19T02:03:52;21.00;99.90
43842;DHT22;29495;49.970;20.842;2022-08-19T02:06:19;20.90;99.90
43842;DHT22;29495;49.970;20.842;2022-08-19T02:08:45;21.00;99.90
43842;DHT22;29495;49.970;20.842;2022-08-19T02:11:24;21.00;99.90
43842;DHT22;29495;49.970;20.842;2022-08-19T02:13:53;20.80;99.90
43842;DHT22;29495;49.970;20.842;2022-08-19T02:16:19;20.70;99.90
43842;DHT22;29495;49.970;20.842;2022-08-19T02:18:46;20.50;99.90
43842;DHT22;29495;49.970;20.842;2022-08-19T02:21:17;20.50;99.90
43842;DHT22;29495;49.970;20.842;2022-08-19T02:23:44;20.60;99.90
43842;DHT22;29495;49.970;20.842;2022-08-19T02:26:10;20.50;99.90
43842;DHT22;29495;49.970;20.842;2022-08-19T02:28:36;20.50;99.90
43842;DHT22;29495;49.970;20.842;2022-08-19T02:31:03;20.50;99.90
43842;DHT22;29495;49.970;20.842;2022-08-19T02:33:29;20.50;99.90
43842;DHT22;29495;49.970;20.842;2022-08-19T02:35:55;20.60;99.90
43842;DHT22;29495;49.970;20.842;2022-08-19T02:38:21;20.50;99.90
43842;DHT22;29495;49.970;20.842;2022-08-19T02:40:56;20.60;99.90
43842;DHT22;29495;49.970;20.842;2022-08-19T02:43:23;20.50;99.90
43842;DHT22;29495;49.970;20.842;2022-08-19T02:45:50;20.50;99.90
43842;DHT22;29495;49.970;20.842;2022-08-19T02:48:18;20.40;99.90
43842;DHT22;29495;49.970;20.842;2022-08-19T02:50:45;20.40;99.90
43842;DHT22;29495;49.970;20.842;2022-08-19T02:53:12;20.50;99.90
43842;DHT22;29495;49.970;20.842;2022-08-19T02:55:45;20.50;99.90
43842;DHT22;29495;49.970;20.842;2022-08-19T02:58:13;20.40;99.90
43842;DHT22;29495;49.970;20.842;2022-08-19T03:00:49;20.40;99.90
43842;DHT22;29495;49.970;20.842;2022-08-19T03:03:19;20.30;99.90
43842;DHT22;29495;49.970;20.842;2022-08-19T03:05:45;20.30;99.90
43842;DHT22;29495;49.970;20.842;2022-08-19T03:08:12;20.30;99.90
43842;DHT22;29495;49.970;20.842;2022-08-19T03:10:46;20.20;99.90
43842;DHT22;29495;49.970;20.842;2022-08-19T03:13:16;20.10;99.90
43842;DHT22;29495;49.970;20.842;2022-08-19T03:15:45;20.10;99.90
43842;DHT22;29495;49.970;20.842;2022-08-19T03:18:12;20.00;99.90
43842;DHT22;29495;49.970;20.842;2022-08-19T03:20:43;20.00;99.90
43842;DHT22;29495;49.970;20.842;2022-08-19T03:23:11;19.90;99.90
43842;DHT22;29495;49.970;20.842;2022-08-19T03:25:40;19.90;99.90
43842;DHT22;29495;49.970;20.842;2022-08-19T03:28:07;19.90;99.90
43842;DHT22;29495;49.970;20.842;2022-08-19T03:30:33;20.00;99.90
43842;DHT22;29495;49.970;20.842;2022-08-19T03:33:06;20.10;99.90
43842;DHT22;29495;49.970;20.842;2022-08-19T03:35:32;20.00;99.90
43842;DHT22;29495;49.970;20.842;2022-08-19T03:37:59;20.10;99.90
43842;DHT22;29495;49.970;20.842;2022-08-19T03:40:25;20.10;99.90
43842;DHT22;29495;49.970;20.842;2022-08-19T03:42:51;20.20;99.90
43842;DHT22;29495;49.970;20.842;2022-08-19T03:45:17;20.20;99.90
43842;DHT22;29495;49.970;20.842;2022-08-19T03:47:43;20.30;99.90
43842;DHT22;29495;49.970;20.842;2022-08-19T03:50:11;20.40;99.90
43842;DHT22;29495;49.970;20.842;2022-08-19T03:52:36;20.40;99.90
43842;DHT22;29495;49.970;20.842;2022-08-19T03:55:03;20.50;99.90
43842;DHT22;29495;49.970;20.842;2022-08-19T03:57:29;20.60;99.90
43842;DHT22;29495;49.970;20.842;2022-08-19T03:59:55;20.70;99.90
43842;DHT22;29495;49.970;20.842;2022-08-19T04:02:21;20.70;99.90
43842;DHT22;29495;49.970;20.842;2022-08-19T04:04:47;20.70;99.90
43842;DHT22;29495;49.970;20.842;2022-08-19T04:07:14;20.80;99.90
43842;DHT22;29495;49.970;20.842;2022-08-19T04:09:43;20.80;99.90
43842;DHT22;29495;49.970;20.842;2022-08-19T04:12:09;20.80;99.90
43842;DHT22;29495;49.970;20.842;2022-08-19T04:14:35;20.90;99.90
43842;DHT22;29495;49.970;20.842;2022-08-19T04:17:02;21.00;99.90
43842;DHT22;29495;49.970;20.842;2022-08-19T04:19:33;21.00;99.90
43842;DHT22;29495;49.970;20.842;2022-08-19T04:21:59;21.10;99.90
43842;DHT22;29495;49.970;20.842;2022-08-19T04:24:25;21.20;99.90
43842;DHT22;29495;49.970;20.842;2022-08-19T04:26:51;21.20;99.90
43842;DHT22;29495;49.970;20.842;2022-08-19T04:29:20;21.30;99.90
43842;DHT22;29495;49.970;20.842;2022-08-19T04:31:48;21.40;99.90
43842;DHT22;29495;49.970;20.842;2022-08-19T04:34:17;21.60;99.90
43842;DHT22;29495;49.970;20.842;2022-08-19T04:36:43;21.60;99.90
43842;DHT22;29495;49.970;20.842;2022-08-19T04:39:16;21.80;99.90
43842;DHT22;29495;49.970;20.842;2022-08-19T04:41:43;21.90;99.90
43842;DHT22;29495;49.970;20.842;2022-08-19T04:44:29;22.00;99.90
43842;DHT22;29495;49.970;20.842;2022-08-19T04:46:57;22.00;99.90
43842;DHT22;29495;49.970;20.842;2022-08-19T04:49:23;22.20;99.90
43842;DHT22;29495;49.970;20.842;2022-08-19T04:51:51;22.30;99.90
43842;DHT22;29495;49.970;20.842;2022-08-19T04:54:20;22.30;99.90
43842;DHT22;29495;49.970;20.842;2022-08-19T04:56:49;22.60;99.90
43842;DHT22;29495;49.970;20.842;2022-08-19T04:59:16;22.70;99.90
43842;DHT22;29495;49.970;20.842;2022-08-19T05:01:44;23.00;99.90
43842;DHT22;29495;49.970;20.842;2022-08-19T05:04:19;23.30;99.90
43842;DHT22;29495;49.970;20.842;2022-08-19T05:06:47;23.70;99.90
43842;DHT22;29495;49.970;20.842;2022-08-19T05:09:14;24.20;99.90
43842;DHT22;29495;49.970;20.842;2022-08-19T05:11:41;24.90;99.90
43842;DHT22;29495;49.970;20.842;2022-08-19T05:14:08;25.70;99.90
43842;DHT22;29495;49.970;20.842;2022-08-19T05:16:34;26.30;99.90
43842;DHT22;29495;49.970;20.842;2022-08-19T05:19:00;27.00;99.90
43842;DHT22;29495;49.970;20.842;2022-08-19T05:21:45;27.60;99.90
43842;DHT22;29495;49.970;20.842;2022-08-19T05:24:30;28.00;99.90
43842;DHT22;29495;49.970;20.842;2022-08-19T05:27:00;28.20;99.90
43842;DHT22;29495;49.970;20.842;2022-08-19T05:29:28;28.70;99.90
43842;DHT22;29495;49.970;20.842;2022-08-19T05:31:55;29.70;99.90
43842;DHT22;29495;49.970;20.842;2022-08-19T05:34:22;30.00;99.20
43842;DHT22;29495;49.970;20.842;2022-08-19T05:36:51;30.30;96.50
43842;DHT22;29495;49.970;20.842;2022-08-19T05:39:21;30.10;95.60
43842;DHT22;29495;49.970;20.842;2022-08-19T05:41:51;30.30;95.60
43842;DHT22;29495;49.970;20.842;2022-08-19T05:44:18;30.70;94.90
43842;DHT22;29495;49.970;20.842;2022-08-19T05:46:46;31.10;93.50
43842;DHT22;29495;49.970;20.842;2022-08-19T05:49:20;31.70;92.70
43842;DHT22;29495;49.970;20.842;2022-08-19T05:51:47;31.80;90.80
43842;DHT22;29495;49.970;20.842;2022-08-19T05:54:13;32.40;88.00
43842;DHT22;29495;49.970;20.842;2022-08-19T05:56:40;32.40;89.10
43842;DHT22;29495;49.970;20.842;2022-08-19T05:59:08;32.50;86.60
43842;DHT22;29495;49.970;20.842;2022-08-19T06:01:38;32.70;84.10
43842;DHT22;29495;49.970;20.842;2022-08-19T06:04:05;32.80;80.30
43842;DHT22;29495;49.970;20.842;2022-08-19T06:06:32;33.00;76.80
43842;DHT22;29495;49.970;20.842;2022-08-19T06:09:04;32.90;76.10
43842;DHT22;29495;49.970;20.842;2022-08-19T06:11:42;33.20;75.60
43842;DHT22;29495;49.970;20.842;2022-08-19T06:14:17;34.00;73.90
43842;DHT22;29495;49.970;20.842;2022-08-19T06:16:45;34.70;72.30
43842;DHT22;29495;49.970;20.842;2022-08-19T06:19:16;34.40;69.00
43842;DHT22;29495;49.970;20.842;2022-08-19T06:21:44;34.20;71.10
43842;DHT22;29495;49.970;20.842;2022-08-19T06:24:12;34.30;68.80
43842;DHT22;29495;49.970;20.842;2022-08-19T06:26:42;35.30;68.90
43842;DHT22;29495;49.970;20.842;2022-08-19T06:29:10;35.70;66.20
43842;DHT22;29495;49.970;20.842;2022-08-19T06:31:40;35.30;65.60
43842;DHT22;29495;49.970;20.842;2022-08-19T06:34:06;35.20;64.70
43842;DHT22;29495;49.970;20.842;2022-08-19T06:36:38;35.80;64.80
43842;DHT22;29495;49.970;20.842;2022-08-19T06:39:08;35.60;63.50
43842;DHT22;29495;49.970;20.842;2022-08-19T06:41:40;36.30;63.50
43842;DHT22;29495;49.970;20.842;2022-08-19T06:44:10;36.10;64.20
43842;DHT22;29495;49.970;20.842;2022-08-19T06:46:39;36.30;62.20
43842;DHT22;29495;49.970;20.842;2022-08-19T06:49:05;36.20;62.50
43842;DHT22;29495;49.970;20.842;2022-08-19T06:51:31;36.10;63.30
43842;DHT22;29495;49.970;20.842;2022-08-19T06:53:58;35.60;61.90
43842;DHT22;29495;49.970;20.842;2022-08-19T06:56:27;36.20;60.30
43842;DHT22;29495;49.970;20.842;2022-08-19T06:59:04;36.70;64.60
43842;DHT22;29495;49.970;20.842;2022-08-19T07:01:37;36.90;60.30
43842;DHT22;29495;49.970;20.842;2022-08-19T07:04:06;37.70;61.40
43842;DHT22;29495;49.970;20.842;2022-08-19T07:06:32;37.70;58.10
43842;DHT22;29495;49.970;20.842;2022-08-19T07:08:58;37.00;59.20
43842;DHT22;29495;49.970;20.842;2022-08-19T07:11:24;37.20;58.20
43842;DHT22;29495;49.970;20.842;2022-08-19T07:13:50;37.20;60.60
43842;DHT22;29495;49.970;20.842;2022-08-19T07:16:17;37.10;58.00
43842;DHT22;29495;49.970;20.842;2022-08-19T07:18:49;37.50;56.90
43842;DHT22;29495;49.970;20.842;2022-08-19T07:21:19;37.70;57.50
43842;DHT22;29495;49.970;20.842;2022-08-19T07:23:46;37.40;56.80
43842;DHT22;29495;49.970;20.842;2022-08-19T07:26:24;36.90;57.70
43842;DHT22;29495;49.970;20.842;2022-08-19T07:28:50;37.60;58.40
43842;DHT22;29495;49.970;20.842;2022-08-19T07:31:19;37.60;57.20
43842;DHT22;29495;49.970;20.842;2022-08-19T07:33:47;38.00;57.00
43842;DHT22;29495;49.970;20.842;2022-08-19T07:36:16;38.60;56.30
43842;DHT22;29495;49.970;20.842;2022-08-19T07:38:45;38.10;55.70
43842;DHT22;29495;49.970;20.842;2022-08-19T07:41:14;38.30;55.70
43842;DHT22;29495;49.970;20.842;2022-08-19T07:43:41;38.40;55.60
43842;DHT22;29495;49.970;20.842;2022-08-19T07:46:09;37.60;56.20
43842;DHT22;29495;49.970;20.842;2022-08-19T07:48:41;37.20;57.10
43842;DHT22;29495;49.970;20.842;2022-08-19T07:51:08;36.10;58.00
43842;DHT22;29495;49.970;20.842;2022-08-19T07:53:38;36.10;58.20
43842;DHT22;29495;49.970;20.842;2022-08-19T07:56:05;35.60;57.90
43842;DHT22;29495;49.970;20.842;2022-08-19T07:58:34;35.50;59.60
43842;DHT22;29495;49.970;20.842;2022-08-19T08:01:00;35.10;58.50
43842;DHT22;29495;49.970;20.842;2022-08-19T08:03:27;35.20;60.70
43842;DHT22;29495;49.970;20.842;2022-08-19T08:06:13;34.80;60.60
43842;DHT22;29495;49.970;20.842;2022-08-19T08:08:59;34.60;61.40
43842;DHT22;29495;49.970;20.842;2022-08-19T08:11:44;34.60;61.40
43842;DHT22;29495;49.970;20.842;2022-08-19T08:14:17;34.30;60.80
43842;DHT22;29495;49.970;20.842;2022-08-19T08:16:44;34.50;65.70
43842;DHT22;29495;49.970;20.842;2022-08-19T08:19:12;34.50;63.20
43842;DHT22;29495;49.970;20.842;2022-08-19T08:21:41;34.30;63.60
43842;DHT22;29495;49.970;20.842;2022-08-19T08:24:07;34.00;63.60
43842;DHT22;29495;49.970;20.842;2022-08-19T08:26:33;34.10;62.00
43842;DHT22;29495;49.970;20.842;2022-08-19T08:28:59;34.00;65.70
43842;DHT22;29495;49.970;20.842;2022-08-19T08:31:25;33.90;66.20
43842;DHT22;29495;49.970;20.842;2022-08-19T08:33:51;33.90;67.50
43842;DHT22;29495;49.970;20.842;2022-08-19T08:36:17;34.00;68.00
43842;DHT22;29495;49.970;20.842;2022-08-19T08:38:44;33.60;67.10
43842;DHT22;29495;49.970;20.842;2022-08-19T08:41:31;33.20;65.20
43842;DHT22;29495;49.970;20.842;2022-08-19T08:43:59;33.30;66.50
43842;DHT22;29495;49.970;20.842;2022-08-19T08:46:55;33.10;66.00
43842;DHT22;29495;49.970;20.842;2022-08-19T08:49:33;33.40;68.00
43842;DHT22;29495;49.970;20.842;2022-08-19T08:52:05;33.50;69.70
43842;DHT22;29495;49.970;20.842;2022-08-19T08:54:37;33.60;68.30
43842;DHT22;29495;49.970;20.842;2022-08-19T08:57:12;33.90;67.10
43842;DHT22;29495;49.970;20.842;2022-08-19T08:59:41;33.90;66.30
43842;DHT22;29495;49.970;20.842;2022-08-19T09:02:08;34.00;64.60
43842;DHT22;29495;49.970;20.842;2022-08-19T09:04:36;34.10;65.70
43842;DHT22;29495;49.970;20.842;2022-08-19T09:09:43;34.40;64.90
43842;DHT22;29495;49.970;20.842;2022-08-19T09:14:52;33.90;66.20
43842;DHT22;29495;49.970;20.842;2022-08-19T09:17:22;33.70;67.60
43842;DHT22;29495;49.970;20.842;2022-08-19T09:20:04;33.90;67.30
43842;DHT22;29495;49.970;20.842;2022-08-19T09:22:32;34.10;69.60
43842;DHT22;29495;49.970;20.842;2022-08-19T09:24:58;34.10;66.80
43842;DHT22;29495;49.970;20.842;2022-08-19T09:27:25;33.80;65.80
43842;DHT22;29495;49.970;20.842;2022-08-19T09:29:52;33.70;66.20
43842;DHT22;29495;49.970;20.842;2022-08-19T09:32:20;33.70;66.60
43842;DHT22;29495;49.970;20.842;2022-08-19T09:34:46;34.10;68.30
43842;DHT22;29495;49.970;20.842;2022-08-19T09:37:12;34.30;66.70
43842;DHT22;29495;49.970;20.842;2022-08-19T09:39:39;34.50;68.00
43842;DHT22;29495;49.970;20.842;2022-08-19T09:42:07;34.40;69.80
43842;DHT22;29495;49.970;20.842;2022-08-19T09:44:39;34.60;66.40
43842;DHT22;29495;49.970;20.842;2022-08-19T09:47:05;34.40;68.90
43842;DHT22;29495;49.970;20.842;2022-08-19T09:49:33;33.80;66.70
43842;DHT22;29495;49.970;20.842;2022-08-19T09:51:59;33.80;68.70
43842;DHT22;29495;49.970;20.842;2022-08-19T09:54:26;33.90;70.40
43842;DHT22;29495;49.970;20.842;2022-08-19T09:56:53;34.10;71.30
43842;DHT22;29495;49.970;20.842;2022-08-19T09:59:19;33.90;68.90
43842;DHT22;29495;49.970;20.842;2022-08-19T10:01:45;34.00;68.50
43842;DHT22;29495;49.970;20.842;2022-08-19T10:04:11;33.90;68.20
43842;DHT22;29495;49.970;20.842;2022-08-19T10:06:39;34.20;70.60
43842;DHT22;29495;49.970;20.842;2022-08-19T10:09:06;34.40;66.60
43842;DHT22;29495;49.970;20.842;2022-08-19T10:11:34;34.40;69.90
43842;DHT22;29495;49.970;20.842;2022-08-19T10:14:01;33.80;66.70
43842;DHT22;29495;49.970;20.842;2022-08-19T10:16:27;34.00;68.80
43842;DHT22;29495;49.970;20.842;2022-08-19T10:18:53;34.00;68.80
43842;DHT22;29495;49.970;20.842;2022-08-19T10:21:23;34.30;69.10
43842;DHT22;29495;49.970;20.842;2022-08-19T10:23:52;34.40;69.90
43842;DHT22;29495;49.970;20.842;2022-08-19T10:26:25;34.20;69.40
43842;DHT22;29495;49.970;20.842;2022-08-19T10:28:52;34.20;67.10
43842;DHT22;29495;49.970;20.842;2022-08-19T10:31:24;34.20;68.80
43842;DHT22;29495;49.970;20.842;2022-08-19T10:33:51;34.20;70.20
43842;DHT22;29495;49.970;20.842;2022-08-19T10:36:28;34.10;68.70
43842;DHT22;29495;49.970;20.842;2022-08-19T10:38:56;34.10;68.20
43842;DHT22;29495;49.970;20.842;2022-08-19T10:41:34;34.00;65.80
43842;DHT22;29495;49.970;20.842;2022-08-19T10:44:03;34.10;65.50
43842;DHT22;29495;49.970;20.842;2022-08-19T10:46:32;34.10;71.20
43842;DHT22;29495;49.970;20.842;2022-08-19T10:49:01;34.20;65.60
43842;DHT22;29495;49.970;20.842;2022-08-19T10:51:29;34.40;66.20
43842;DHT22;29495;49.970;20.842;2022-08-19T10:54:13;34.30;66.10
43842;DHT22;29495;49.970;20.842;2022-08-19T10:56:39;34.40;65.90
43842;DHT22;29495;49.970;20.842;2022-08-19T10:59:23;34.30;66.70
43842;DHT22;29495;49.970;20.842;2022-08-19T11:01:50;34.60;70.10
43842;DHT22;29495;49.970;20.842;2022-08-19T11:04:17;34.80;66.50
43842;DHT22;29495;49.970;20.842;2022-08-19T11:06:45;34.70;66.10
43842;DHT22;29495;49.970;20.842;2022-08-19T11:09:18;34.60;70.40
43842;DHT22;29495;49.970;20.842;2022-08-19T11:11:45;34.60;67.00
43842;DHT22;29495;49.970;20.842;2022-08-19T11:14:15;34.60;66.90
43842;DHT22;29495;49.970;20.842;2022-08-19T11:16:42;34.50;66.60
43842;DHT22;29495;49.970;20.842;2022-08-19T11:19:10;34.20;65.80
43842;DHT22;29495;49.970;20.842;2022-08-19T11:21:42;34.40;66.00
43842;DHT22;29495;49.970;20.842;2022-08-19T11:24:17;34.60;69.80
43842;DHT22;29495;49.970;20.842;2022-08-19T11:26:44;34.60;64.30
43842;DHT22;29495;49.970;20.842;2022-08-19T11:29:11;34.50;66.20
43842;DHT22;29495;49.970;20.842;2022-08-19T11:31:41;34.50;68.00
43842;DHT22;29495;49.970;20.842;2022-08-19T11:34:10;34.50;66.20
43842;DHT22;29495;49.970;20.842;2022-08-19T11:36:40;34.40;64.20
43842;DHT22;29495;49.970;20.842;2022-08-19T11:39:09;34.60;65.00
43842;DHT22;29495;49.970;20.842;2022-08-19T11:41:35;34.50;64.40
43842;DHT22;29495;49.970;20.842;2022-08-19T11:44:02;34.50;66.20
43842;DHT22;29495;49.970;20.842;2022-08-19T11:46:29;34.40;67.60
43842;DHT22;29495;49.970;20.842;2022-08-19T11:48:58;34.50;66.50
43842;DHT22;29495;49.970;20.842;2022-08-19T11:51:26;34.70;69.10
43842;DHT22;29495;49.970;20.842;2022-08-19T11:53:54;34.70;68.50
43842;DHT22;29495;49.970;20.842;2022-08-19T11:56:22;34.90;65.60
43842;DHT22;29495;49.970;20.842;2022-08-19T11:58:48;34.90;64.60
43842;DHT22;29495;49.970;20.842;2022-08-19T12:01:17;34.60;65.40
43842;DHT22;29495;49.970;20.842;2022-08-19T12:03:45;34.50;66.30
43842;DHT22;29495;49.970;20.842;2022-08-19T12:06:14;34.50;66.30
43842;DHT22;29495;49.970;20.842;2022-08-19T12:08:41;34.50;67.00
43842;DHT22;29495;49.970;20.842;2022-08-19T12:11:08;34.70;67.10
43842;DHT22;29495;49.970;20.842;2022-08-19T12:13:36;34.90;67.30
43842;DHT22;29495;49.970;20.842;2022-08-19T12:16:14;34.60;64.90
43842;DHT22;29495;49.970;20.842;2022-08-19T12:18:41;34.80;68.90
43842;DHT22;29495;49.970;20.842;2022-08-19T12:21:09;34.80;67.70
43842;DHT22;29495;49.970;20.842;2022-08-19T12:23:37;34.80;65.70
43842;DHT22;29495;49.970;20.842;2022-08-19T12:26:03;34.80;66.50
43842;DHT22;29495;49.970;20.842;2022-08-19T12:28:30;35.10;65.60
43842;DHT22;29495;49.970;20.842;2022-08-19T12:30:56;35.00;65.60
43842;DHT22;29495;49.970;20.842;2022-08-19T12:33:23;34.80;63.30
43842;DHT22;29495;49.970;20.842;2022-08-19T12:35:51;34.80;63.80
43842;DHT22;29495;49.970;20.842;2022-08-19T12:38:18;35.00;62.70
43842;DHT22;29495;49.970;20.842;2022-08-19T12:40:48;35.10;64.20
43842;DHT22;29495;49.970;20.842;2022-08-19T12:43:15;35.10;62.40
43842;DHT22;29495;49.970;20.842;2022-08-19T12:45:41;35.10;59.80
43842;DHT22;29495;49.970;20.842;2022-08-19T12:48:08;35.10;60.90
43842;DHT22;29495;49.970;20.842;2022-08-19T12:50:34;35.20;64.50
43842;DHT22;29495;49.970;20.842;2022-08-19T12:53:00;35.20;62.10
43842;DHT22;29495;49.970;20.842;2022-08-19T12:55:26;35.10;62.30
43842;DHT22;29495;49.970;20.842;2022-08-19T12:57:54;34.90;62.30
43842;DHT22;29495;49.970;20.842;2022-08-19T13:00:21;35.10;65.90
43842;DHT22;29495;49.970;20.842;2022-08-19T13:02:51;34.80;61.50
43842;DHT22;29495;49.970;20.842;2022-08-19T13:05:21;34.80;61.40
43842;DHT22;29495;49.970;20.842;2022-08-19T13:07:49;34.80;63.20
43842;DHT22;29495;49.970;20.842;2022-08-19T13:10:17;35.00;62.00
43842;DHT22;29495;49.970;20.842;2022-08-19T13:12:46;35.00;61.20
43842;DHT22;29495;49.970;20.842;2022-08-19T13:15:14;35.10;61.80
43842;DHT22;29495;49.970;20.842;2022-08-19T13:17:40;35.20;61.70
43842;DHT22;29495;49.970;20.842;2022-08-19T13:20:10;35.10;59.90
43842;DHT22;29495;49.970;20.842;2022-08-19T13:22:38;35.10;61.10
43842;DHT22;29495;49.970;20.842;2022-08-19T13:25:05;35.10;62.50
43842;DHT22;29495;49.970;20.842;2022-08-19T13:27:32;35.20;61.60
43842;DHT22;29495;49.970;20.842;2022-08-19T13:29:58;35.10;61.60
43842;DHT22;29495;49.970;20.842;2022-08-19T13:32:43;34.90;60.20
43842;DHT22;29495;49.970;20.842;2022-08-19T13:35:28;34.90;62.10
43842;DHT22;29495;49.970;20.842;2022-08-19T13:37:54;34.90;63.30
43842;DHT22;29495;49.970;20.842;2022-08-19T13:40:22;35.10;59.40
43842;DHT22;29495;49.970;20.842;2022-08-19T13:42:53;35.20;58.80
43842;DHT22;29495;49.970;20.842;2022-08-19T13:45:22;35.00;61.30
43842;DHT22;29495;49.970;20.842;2022-08-19T13:47:49;35.00;59.50
43842;DHT22;29495;49.970;20.842;2022-08-19T13:50:19;35.00;61.20
43842;DHT22;29495;49.970;20.842;2022-08-19T13:52:46;34.90;61.60
43842;DHT22;29495;49.970;20.842;2022-08-19T13:55:14;35.00;59.10
43842;DHT22;29495;49.970;20.842;2022-08-19T13:57:40;35.20;58.60
43842;DHT22;29495;49.970;20.842;2022-08-19T14:00:16;35.10;61.10
43842;DHT22;29495;49.970;20.842;2022-08-19T14:02:45;35.00;59.30
43842;DHT22;29495;49.970;20.842;2022-08-19T14:05:14;34.90;59.90
43842;DHT22;29495;49.970;20.842;2022-08-19T14:07:41;34.90;60.50
43842;DHT22;29495;49.970;20.842;2022-08-19T14:10:09;34.80;59.90
43842;DHT22;29495;49.970;20.842;2022-08-19T14:12:35;34.80;61.50
43842;DHT22;29495;49.970;20.842;2022-08-19T14:15:02;34.90;60.80
43842;DHT22;29495;49.970;20.842;2022-08-19T14:17:29;34.80;61.30
43842;DHT22;29495;49.970;20.842;2022-08-19T14:19:59;34.80;57.80
43842;DHT22;29495;49.970;20.842;2022-08-19T14:22:33;34.60;59.10
43842;DHT22;29495;49.970;20.842;2022-08-19T14:24:59;34.70;60.50
43842;DHT22;29495;49.970;20.842;2022-08-19T14:27:25;34.70;61.90
43842;DHT22;29495;49.970;20.842;2022-08-19T14:29:52;34.70;59.70
43842;DHT22;29495;49.970;20.842;2022-08-19T14:32:18;34.60;61.90
43842;DHT22;29495;49.970;20.842;2022-08-19T14:34:44;34.60;61.10
43842;DHT22;29495;49.970;20.842;2022-08-19T14:37:14;34.40;58.80
43842;DHT22;29495;49.970;20.842;2022-08-19T14:39:43;34.40;60.40
43842;DHT22;29495;49.970;20.842;2022-08-19T14:42:10;34.20;58.80
43842;DHT22;29495;49.970;20.842;2022-08-19T14:44:37;34.40;60.70
43842;DHT22;29495;49.970;20.842;2022-08-19T14:47:03;34.50;60.90
43842;DHT22;29495;49.970;20.842;2022-08-19T14:49:29;34.50;61.20
43842;DHT22;29495;49.970;20.842;2022-08-19T14:51:55;34.40;60.40
43842;DHT22;29495;49.970;20.842;2022-08-19T14:54:22;34.30;59.70
43842;DHT22;29495;49.970;20.842;2022-08-19T14:56:48;34.40;60.00
43842;DHT22;29495;49.970;20.842;2022-08-19T14:59:14;34.20;58.90
43842;DHT22;29495;49.970;20.842;2022-08-19T15:01:40;34.20;59.20
43842;DHT22;29495;49.970;20.842;2022-08-19T15:04:06;34.20;60.80
43842;DHT22;29495;49.970;20.842;2022-08-19T15:06:32;34.00;58.70
43842;DHT22;29495;49.970;20.842;2022-08-19T15:08:58;34.00;60.20
43842;DHT22;29495;49.970;20.842;2022-08-19T15:11:27;33.90;59.10
43842;DHT22;29495;49.970;20.842;2022-08-19T15:13:55;33.90;58.30
43842;DHT22;29495;49.970;20.842;2022-08-19T15:16:22;33.90;58.70
43842;DHT22;29495;49.970;20.842;2022-08-19T15:18:56;33.80;59.90
43842;DHT22;29495;49.970;20.842;2022-08-19T15:21:24;33.70;60.40
43842;DHT22;29495;49.970;20.842;2022-08-19T15:23:50;33.60;60.30
43842;DHT22;29495;49.970;20.842;2022-08-19T15:26:18;33.50;60.30
43842;DHT22;29495;49.970;20.842;2022-08-19T15:28:44;33.40;62.30
43842;DHT22;29495;49.970;20.842;2022-08-19T15:31:12;33.30;60.60
43842;DHT22;29495;49.970;20.842;2022-08-19T15:33:39;33.30;60.80